createdAt,value
2018-05-16T00:00:34.994Z,100995.92
2018-05-16T00:05:36.342Z,100996.58
2018-05-16T00:10:37.655Z,100990.34
2018-05-16T00:15:38.962Z,100995.88
2018-05-16T00:20:40.278Z,101000.47
2018-05-16T00:25:42.323Z,101004.16
2018-05-16T00:30:43.635Z,101002.41
2018-05-16T00:35:44.945Z,101000.19
2018-05-16T00:40:46.266Z,100992.34
2018-05-16T00:45:47.569Z,100985.17
2018-05-16T00:51:07.459Z,100995.56
2018-05-16T00:56:08.775Z,100986.19
2018-05-16T01:01:10.097Z,100983.56
2018-05-16T01:06:11.453Z,100978.56
2018-05-16T01:11:12.735Z,100985.55
2018-05-16T01:16:14.814Z,100990.45
2018-05-16T01:21:16.142Z,100985.89
2018-05-16T01:26:17.466Z,100988.39
2018-05-16T01:31:18.773Z,100983.27
2018-05-16T01:36:20.083Z,100987.76
2018-05-16T01:41:22.127Z,100988.91
2018-05-16T01:46:23.422Z,100987.50
2018-05-16T01:51:24.757Z,100989.11
2018-05-16T01:56:26.066Z,100982.77
2018-05-16T02:01:28.099Z,100981.90
2018-05-16T02:06:29.422Z,100985.86
2018-05-16T02:11:30.725Z,100997.93
2018-05-16T02:16:32.059Z,100996.69
2018-05-16T02:21:33.371Z,101006.45
2018-05-16T02:26:34.678Z,101010.52
2018-05-16T02:31:35.982Z,101012.97
2018-05-16T02:36:37.307Z,101003.11
2018-05-16T02:41:39.352Z,101008.52
2018-05-16T02:46:40.647Z,101004.70
2018-05-16T02:51:41.958Z,101004.70
2018-05-16T02:56:43.247Z,101012.34
2018-05-16T03:01:44.557Z,101007.80
2018-05-16T03:06:46.627Z,101006.31
2018-05-16T03:11:47.938Z,101000.41
2018-05-16T03:16:49.973Z,101000.91
2018-05-16T03:21:51.278Z,101011.73
2018-05-16T03:26:52.589Z,100996.43
2018-05-16T03:31:53.882Z,101001.36
2018-05-16T03:36:55.191Z,100995.77
2018-05-16T03:41:56.498Z,100981.45
2018-05-16T03:46:58.542Z,100975.40
2018-05-16T03:51:59.900Z,100994.88
2018-05-16T03:57:01.567Z,100994.25
2018-05-16T04:02:21.692Z,100998.16
2018-05-16T04:07:23.206Z,100997.38
2018-05-16T04:12:24.641Z,101000.25
2018-05-16T04:17:27.037Z,101012.25
2018-05-16T04:22:28.380Z,101021.23
2018-05-16T04:27:29.665Z,101036.14
2018-05-16T04:32:31.826Z,101033.34
2018-05-16T04:37:33.186Z,101033.48
2018-05-16T04:42:34.545Z,101021.42
2018-05-16T04:47:35.867Z,101025.55
2018-05-16T04:52:37.169Z,101024.71
2018-05-16T04:57:39.217Z,101018.59
2018-05-16T05:02:40.540Z,101011.69
2018-05-16T05:07:41.866Z,101022.63
2018-05-16T05:12:43.168Z,101028.20
2018-05-16T05:17:44.466Z,101025.46
2018-05-16T05:22:45.771Z,101029.94
2018-05-16T05:27:47.089Z,101035.78
2018-05-16T05:32:48.415Z,101018.94
2018-05-16T05:37:49.710Z,101025.18
2018-05-16T05:42:51.030Z,101027.89
2018-05-16T05:47:52.329Z,101029.66
2018-05-16T05:52:53.631Z,101038.45
2018-05-16T05:57:54.937Z,101041.13
2018-05-16T06:02:57.004Z,101042.52
2018-05-16T06:07:58.323Z,101054.09
2018-05-16T06:12:59.630Z,101050.50
2018-05-16T06:18:01.682Z,101042.80
2018-05-16T06:23:02.978Z,101047.95
2018-05-16T06:28:04.310Z,101060.39
2018-05-16T06:33:06.358Z,101052.81
2018-05-16T06:38:07.680Z,101052.83
2018-05-16T06:43:08.986Z,101062.53
2018-05-16T06:48:10.313Z,101059.23
2018-05-16T06:53:11.622Z,101069.23
2018-05-16T06:58:12.941Z,101071.98
2018-05-16T07:03:14.258Z,101064.19
2018-05-16T07:08:16.294Z,101074.80
2018-05-16T07:13:17.605Z,101085.72
2018-05-16T07:18:18.906Z,101072.70
2018-05-16T07:23:20.196Z,101073.63
2018-05-16T07:28:21.489Z,101098.24
2018-05-16T07:33:22.785Z,101111.11
2018-05-16T07:38:24.089Z,101112.88
2018-05-16T07:43:26.150Z,101110.09
2018-05-16T07:48:27.461Z,101109.62
2018-05-16T07:53:28.788Z,101099.69
2018-05-16T07:58:30.111Z,101105.39
2018-05-16T08:03:31.441Z,101106.08
2018-05-16T08:08:33.492Z,101113.88
2018-05-16T08:13:34.793Z,101116.47
2018-05-16T08:18:36.090Z,101127.14
2018-05-16T08:23:37.402Z,101116.54
2018-05-16T08:28:38.714Z,101112.16
2018-05-16T08:33:40.771Z,101108.61
2018-05-16T08:38:42.079Z,101112.48
2018-05-16T08:43:43.398Z,101109.76
2018-05-16T08:48:45.469Z,101108.56
2018-05-16T08:53:46.782Z,101117.53
2018-05-16T08:58:48.831Z,101104.17
2018-05-16T09:03:50.146Z,101108.14
2018-05-16T09:08:51.442Z,101103.10
2018-05-16T09:13:52.773Z,101100.17
2018-05-16T09:18:54.069Z,101096.83
2018-05-16T09:23:55.385Z,101106.08
2018-05-16T09:28:56.693Z,101105.55
2018-05-16T09:33:57.994Z,101104.37
2018-05-16T09:38:59.289Z,101100.99
2018-05-16T09:44:00.581Z,101106.30
2018-05-16T09:49:01.887Z,101100.42
2018-05-16T09:54:03.953Z,101106.70
2018-05-16T09:59:05.286Z,101119.91
2018-05-16T10:04:07.377Z,101129.23
2018-05-16T10:09:09.413Z,101122.44
2018-05-16T10:14:10.734Z,101106.19
2018-05-16T10:19:12.052Z,101102.13
2018-05-16T10:24:13.355Z,101099.73
2018-05-16T10:29:15.399Z,101083.43
2018-05-16T10:34:16.714Z,101089.31
2018-05-16T10:39:18.009Z,101084.61
2018-05-16T10:44:19.316Z,101091.17
2018-05-16T10:49:21.348Z,101100.33
2018-05-16T10:54:22.641Z,101097.72
2018-05-16T10:59:23.945Z,101099.67
2018-05-16T11:04:25.296Z,101102.30
2018-05-16T11:09:27.325Z,101093.05
2018-05-16T11:14:28.614Z,101088.48
2018-05-16T11:19:29.913Z,101091.66
2018-05-16T11:24:31.221Z,101093.16
2018-05-16T11:29:32.526Z,101097.82
2018-05-16T11:34:33.840Z,101092.58
2018-05-16T11:39:35.145Z,101098.45
2018-05-16T11:44:37.212Z,101109.33
2018-05-16T11:49:38.518Z,101113.68
2018-05-16T11:54:39.843Z,101107.27
2018-05-16T11:59:41.147Z,101095.82
2018-05-16T12:04:42.545Z,101084.34
2018-05-16T12:09:50.845Z,101068.11
2018-05-16T12:14:52.919Z,101068.69
2018-05-16T12:19:54.228Z,101067.31
2018-05-16T12:24:55.533Z,101058.98
2018-05-16T12:29:57.582Z,101057.03
2018-05-16T12:34:58.890Z,101047.84
2018-05-16T12:40:00.221Z,101045.83
2018-05-16T12:45:02.315Z,101033.94
2018-05-16T12:50:03.651Z,101028.27
2018-05-16T12:55:04.958Z,101028.20
2018-05-16T13:00:06.304Z,101025.73
2018-05-16T13:05:08.373Z,101020.25
2018-05-16T13:10:09.681Z,101019.38
2018-05-16T13:15:10.994Z,101011.70
2018-05-16T13:20:12.285Z,101003.27
2018-05-16T13:25:14.337Z,100993.67
2018-05-16T13:30:15.650Z,100991.41
2018-05-16T13:35:16.979Z,100988.84
2018-05-16T13:40:18.291Z,100986.39
2018-05-16T13:45:19.646Z,100970.63
2018-05-16T13:50:21.697Z,100960.98
2018-05-16T13:55:23.023Z,100948.10
2018-05-16T14:00:24.319Z,100948.67
2018-05-16T14:05:26.399Z,100945.27
2018-05-16T14:10:27.711Z,100943.18
2018-05-16T14:15:29.777Z,100935.88
2018-05-16T14:20:31.217Z,100928.44
2018-05-16T14:25:33.304Z,100914.61
2018-05-16T14:30:34.626Z,100923.41
2018-05-16T14:35:35.950Z,100925.67
2018-05-16T14:40:37.278Z,100925.62
2018-05-16T14:45:39.319Z,100912.61
2018-05-16T14:50:40.641Z,100896.95
2018-05-16T14:55:42.088Z,100915.60
2018-05-16T15:00:44.965Z,100950.28
2018-05-16T15:05:46.327Z,100980.05
2018-05-16T15:10:47.663Z,100975.23
2018-05-16T15:15:49.090Z,100961.00
2018-05-16T15:20:50.407Z,100943.31
2018-05-16T15:25:51.718Z,100938.25
2018-05-16T15:30:53.034Z,100958.19
2018-05-16T15:35:54.377Z,100941.08
2018-05-16T15:40:55.685Z,100924.36
2018-05-16T15:45:57.019Z,100987.62
2018-05-16T15:50:59.080Z,100878.80
2018-05-16T15:56:01.302Z,100936.45
2018-05-16T16:01:02.655Z,100944.14
2018-05-16T16:06:04.005Z,100955.15
2018-05-16T16:11:07.357Z,100977.33
2018-05-16T16:16:08.673Z,101021.06
2018-05-16T16:21:10.017Z,101015.14
2018-05-16T16:26:11.340Z,100985.17
2018-05-16T16:31:12.754Z,100975.64
2018-05-16T16:36:13.997Z,100967.71
2018-05-16T16:41:17.026Z,100982.06
2018-05-16T16:46:18.404Z,100959.77
2018-05-16T16:51:20.469Z,100972.09
2018-05-16T16:56:21.851Z,100984.05
2018-05-16T17:01:23.865Z,101015.64
2018-05-16T17:06:25.224Z,101024.91
2018-05-16T17:11:26.734Z,101031.45
2018-05-16T17:16:28.146Z,101044.07
2018-05-16T17:21:29.542Z,101020.14
2018-05-16T17:26:31.087Z,101038.38
2018-05-16T17:31:32.709Z,101109.32
2018-05-16T17:36:34.419Z,101119.21
2018-05-16T17:41:37.442Z,101076.20
2018-05-16T17:46:46.949Z,101051.09
2018-05-16T17:51:48.332Z,101028.36
2018-05-16T17:56:50.570Z,101074.05
2018-05-16T18:01:53.504Z,101087.63
2018-05-16T18:06:55.776Z,101090.67
2018-05-16T18:11:58.376Z,101107.28
2018-05-16T18:17:18.862Z,101115.77
2018-05-16T18:22:20.520Z,101132.92
2018-05-16T18:27:22.674Z,101124.05
2018-05-16T18:32:26.036Z,101101.61
2018-05-16T18:37:27.699Z,101089.72
2018-05-16T18:42:30.824Z,101094.66
2018-05-16T18:47:32.985Z,101098.86
2018-05-16T18:52:34.445Z,101108.14
2018-05-16T18:57:37.127Z,101125.42
2018-05-16T19:02:38.450Z,101131.75
2018-05-16T19:07:40.815Z,101137.98
2018-05-16T19:12:42.169Z,101141.87
2018-05-16T19:17:44.219Z,101146.77
2018-05-16T19:22:45.658Z,101151.73
2018-05-16T19:27:47.822Z,101163.53
2018-05-16T19:32:50.021Z,101170.45
2018-05-16T19:37:51.399Z,101173.44
2018-05-16T19:42:52.727Z,101173.16
2018-05-16T19:47:54.526Z,101187.98
2018-05-16T19:52:55.842Z,101200.31
2018-05-16T19:57:57.913Z,101210.15
2018-05-16T20:02:59.282Z,101213.41
2018-05-16T20:08:00.652Z,101224.25
2018-05-16T20:13:01.989Z,101217.10
2018-05-16T20:18:03.349Z,101222.70
2018-05-16T20:23:04.686Z,101224.27
2018-05-16T20:28:07.105Z,101223.83
2018-05-16T20:33:10.343Z,101224.03
2018-05-16T20:38:11.898Z,101225.66
2018-05-16T20:43:13.207Z,101232.98
2018-05-16T20:48:20.835Z,101245.17
2018-05-16T20:53:22.213Z,101247.73
2018-05-16T20:58:23.555Z,101248.78
2018-05-16T21:03:25.618Z,101253.69
2018-05-16T21:08:26.970Z,101260.64
2018-05-16T21:13:28.310Z,101266.13
2018-05-16T21:18:29.614Z,101269.57
2018-05-16T21:23:31.681Z,101273.87
2018-05-16T21:28:33.081Z,101277.92
2018-05-16T21:33:35.092Z,101276.84
2018-05-16T21:38:36.404Z,101284.20
2018-05-16T21:43:37.733Z,101290.66
2018-05-16T21:48:39.056Z,101282.53
2018-05-16T21:53:40.375Z,101295.28
2018-05-16T21:58:41.699Z,101304.56
2018-05-16T22:03:43.035Z,101305.48
2018-05-16T22:08:44.373Z,101316.54
2018-05-16T22:13:45.695Z,101316.50
2018-05-16T22:18:47.005Z,101307.38
2018-05-16T22:23:48.306Z,101313.14
2018-05-16T22:28:49.644Z,101309.59
2018-05-16T22:33:57.139Z,101311.86
2018-05-16T22:39:05.329Z,101315.34
2018-05-16T22:44:20.464Z,101313.38
2018-05-16T22:49:21.779Z,101310.53
2018-05-16T22:54:23.094Z,101309.68
2018-05-16T22:59:25.159Z,101310.30
2018-05-16T23:04:26.481Z,101306.42
2018-05-16T23:09:28.521Z,101307.55
2018-05-16T23:14:29.864Z,101312.81
2018-05-16T23:19:31.205Z,101316.91
2018-05-16T23:24:32.519Z,101328.89
2018-05-16T23:29:33.851Z,101338.20
2018-05-16T23:34:36.047Z,101337.16
2018-05-16T23:39:37.826Z,101332.70
2018-05-16T23:44:39.373Z,101340.66
2018-05-16T23:49:40.687Z,101342.55
2018-05-16T23:54:42.347Z,101338.58
2018-05-16T23:59:44.036Z,101341.39
